Time;durP1;ratioP1;P1;durP2;ratioP2;P2;SDS_P1;SDS_P2;PMS_P1;PMS_P2;Temp;Humidity;BMP_temperature;BMP_pressure;BME280_temperature;BME280_humidity;BME280_pressure;Samples;Min_cycle;Max_cycle;Signal;HPM_P1;HPM_P2
2022/12/09 00:01:20;;;;;;;;;;;4.30;97.90;;;;;;5088049;28;19947;-74
2022/12/09 00:03:46;;;;;;;;;;;4.30;97.90;;;;;;5071415;28;19912;-73
2022/12/09 00:06:16;;;;;;;;;;;4.30;98.00;;;;;;5089992;28;20273;-74
2022/12/09 00:08:41;;;;;;;;;;;4.30;97.90;;;;;;5077823;28;19908;-73
2022/12/09 00:11:07;;;;;;;;;;;4.40;98.00;;;;;;5068099;28;20346;-73
2022/12/09 00:13:33;;;;;;;;;;;4.30;97.90;;;;;;5068106;28;20675;-74
2022/12/09 00:15:58;;;;;;;;;;;4.30;97.90;;;;;;5068122;28;19923;-73
2022/12/09 00:18:24;;;;;;;;;;;4.30;97.90;;;;;;5068350;28;19914;-73
2022/12/09 00:20:49;;;;;;;;;;;4.40;98.00;;;;;;5085292;28;19915;-73
2022/12/09 00:23:15;;;;;;;;;;;4.30;97.90;;;;;;5072174;28;19912;-73
2022/12/09 00:25:40;;;;;;;;;;;4.30;97.90;;;;;;5087393;28;19920;-73
2022/12/09 00:28:06;;;;;;;;;;;4.30;97.90;;;;;;5088358;28;20007;-73
2022/12/09 00:30:31;;;;;;;;;;;4.30;97.90;;;;;;5087935;28;20270;-74
2022/12/09 00:32:57;;;;;;;;;;;4.30;97.90;;;;;;5088466;28;19916;-73
2022/12/09 00:35:22;;;;;;;;;;;4.30;97.90;;;;;;5087987;28;20090;-71
2022/12/09 00:37:48;;;;;;;;;;;4.30;97.90;;;;;;5087631;28;19919;-70
2022/12/09 00:40:13;;;;;;;;;;;4.40;97.90;;;;;;5087485;28;19965;-71
2022/12/09 00:42:39;;;;;;;;;;;4.40;97.90;;;;;;5087263;28;20599;-70
2022/12/09 00:45:04;;;;;;;;;;;4.30;97.90;;;;;;5087640;28;20015;-70
2022/12/09 00:47:30;;;;;;;;;;;4.30;97.90;;;;;;5104644;28;19916;-71
2022/12/09 00:49:55;;;;;;;;;;;4.30;97.90;;;;;;5099346;28;19912;-71
2022/12/09 00:52:21;;;;;;;;;;;4.30;97.90;;;;;;5082615;28;20019;-71
2022/12/09 00:54:46;;;;;;;;;;;4.40;97.90;;;;;;5085920;28;19912;-71
2022/12/09 00:57:12;;;;;;;;;;;4.30;97.90;;;;;;5087383;28;19923;-70
2022/12/09 00:59:37;;;;;;;;;;;4.30;97.90;;;;;;5086708;28;20675;-71
2022/12/09 01:02:03;;;;;;;;;;;4.30;97.90;;;;;;5087639;28;19916;-71
2022/12/09 01:04:28;;;;;;;;;;;4.30;97.90;;;;;;5083269;28;19942;-71
2022/12/09 01:06:54;;;;;;;;;;;4.30;97.90;;;;;;5087511;28;19912;-71
2022/12/09 01:09:19;;;;;;;;;;;4.30;97.90;;;;;;5087088;28;19966;-70
2022/12/09 01:11:45;;;;;;;;;;;4.30;97.90;;;;;;5087477;28;19908;-71
2022/12/09 01:14:10;;;;;;;;;;;4.30;97.90;;;;;;5069018;28;19969;-71
2022/12/09 01:16:36;;;;;;;;;;;4.30;97.90;;;;;;5086799;28;19912;-71
2022/12/09 01:19:03;;;;;;;;;;;4.40;97.90;;;;;;5092069;28;20754;-71
2022/12/09 01:21:29;;;;;;;;;;;4.30;97.90;;;;;;5104744;28;20006;-70
2022/12/09 01:23:54;;;;;;;;;;;4.30;97.90;;;;;;5086362;28;20037;-71
2022/12/09 01:26:20;;;;;;;;;;;4.40;97.90;;;;;;5067747;28;19947;-71
2022/12/09 01:28:49;;;;;;;;;;;4.30;97.90;;;;;;5086548;28;19916;-71
2022/12/09 01:31:17;;;;;;;;;;;4.30;97.90;;;;;;5086887;28;20419;-71
2022/12/09 01:33:42;;;;;;;;;;;4.30;97.90;;;;;;5064598;28;19961;-71
2022/12/09 01:36:09;;;;;;;;;;;4.30;97.90;;;;;;5081121;28;19920;-71
2022/12/09 01:38:35;;;;;;;;;;;4.30;97.90;;;;;;5077372;28;19919;-71
2022/12/09 01:41:01;;;;;;;;;;;4.30;97.90;;;;;;5066813;28;19909;-71
2022/12/09 01:43:26;;;;;;;;;;;4.30;97.90;;;;;;5066990;28;19912;-70
2022/12/09 01:45:52;;;;;;;;;;;4.30;97.90;;;;;;5066985;28;19919;-71
2022/12/09 01:48:19;;;;;;;;;;;4.30;97.90;;;;;;5066989;28;19977;-71
2022/12/09 01:50:55;;;;;;;;;;;4.30;97.90;;;;;;5066559;28;19920;-70
2022/12/09 01:53:23;;;;;;;;;;;4.30;97.90;;;;;;5085890;28;19916;-71
2022/12/09 01:55:49;;;;;;;;;;;4.30;97.90;;;;;;5086825;28;19966;-71
2022/12/09 01:58:15;;;;;;;;;;;4.30;97.90;;;;;;5086966;28;19912;-71
2022/12/09 02:00:41;;;;;;;;;;;4.30;97.90;;;;;;5086842;28;19908;-71
2022/12/09 02:03:06;;;;;;;;;;;4.30;97.90;;;;;;5086984;28;19908;-71
2022/12/09 02:05:32;;;;;;;;;;;4.30;97.90;;;;;;5071645;28;19913;-71
2022/12/09 02:07:58;;;;;;;;;;;4.30;97.90;;;;;;5077284;28;19937;-71
2022/12/09 02:10:24;;;;;;;;;;;4.30;97.90;;;;;;5100420;28;19916;-71
2022/12/09 02:12:55;;;;;;;;;;;4.30;97.90;;;;;;5090768;28;19952;-71
2022/12/09 02:15:22;;;;;;;;;;;4.30;97.90;;;;;;5090671;28;20027;-71
2022/12/09 02:17:52;;;;;;;;;;;4.30;98.00;;;;;;5090517;28;19919;-71
2022/12/09 02:20:38;;;;;;;;;;;4.30;97.90;;;;;;5090536;28;19912;-71
2022/12/09 02:23:03;;;;;;;;;;;4.30;97.90;;;;;;5089021;28;20627;-71
2022/12/09 02:25:29;;;;;;;;;;;4.30;97.90;;;;;;5096813;28;19923;-70
2022/12/09 02:28:07;;;;;;;;;;;4.30;97.90;;;;;;5089417;28;19914;-71
2022/12/09 02:30:39;;;;;;;;;;;4.30;97.90;;;;;;5088183;28;19944;-71
2022/12/09 02:33:12;;;;;;;;;;;4.30;97.90;;;;;;5089778;28;19965;-71
2022/12/09 02:35:37;;;;;;;;;;;4.30;97.90;;;;;;5090080;28;20504;-71
2022/12/09 02:38:11;;;;;;;;;;;4.30;97.90;;;;;;5085484;28;19917;-70
2022/12/09 02:40:48;;;;;;;;;;;4.30;97.90;;;;;;5069476;28;19921;-71
2022/12/09 02:43:15;;;;;;;;;;;4.30;97.90;;;;;;5107584;28;20039;-71
2022/12/09 02:45:42;;;;;;;;;;;4.30;97.90;;;;;;5110415;28;19914;-71
2022/12/09 02:48:08;;;;;;;;;;;4.30;97.90;;;;;;5110352;28;20287;-71
2022/12/09 02:50:34;;;;;;;;;;;4.30;97.90;;;;;;5110318;28;19923;-71
2022/12/09 02:53:04;;;;;;;;;;;4.30;98.20;;;;;;5080662;28;19913;-70
2022/12/09 02:55:31;;;;;;;;;;;4.30;97.90;;;;;;5089341;28;19981;-70
2022/12/09 02:57:58;;;;;;;;;;;4.30;97.90;;;;;;5094698;28;19915;-70
2022/12/09 03:00:24;;;;;;;;;;;4.30;97.90;;;;;;5100981;28;20315;-72
2022/12/09 03:02:52;;;;;;;;;;;4.30;97.90;;;;;;5089994;28;19958;-71
2022/12/09 03:05:17;;;;;;;;;;;4.30;97.90;;;;;;5090889;28;19916;-71
2022/12/09 03:07:53;;;;;;;;;;;4.30;97.90;;;;;;5087583;28;19918;-71
2022/12/09 03:10:26;;;;;;;;;;;4.30;97.90;;;;;;5068255;28;19913;-70
2022/12/09 03:12:58;;;;;;;;;;;4.30;97.90;;;;;;5069167;28;19923;-71
2022/12/09 03:15:25;;;;;;;;;;;4.30;97.90;;;;;;5089506;28;19930;-71
2022/12/09 03:17:51;;;;;;;;;;;4.30;97.90;;;;;;5110001;28;19995;-71
2022/12/09 03:20:20;;;;;;;;;;;4.30;97.90;;;;;;5109410;28;20440;-71
2022/12/09 03:22:47;;;;;;;;;;;4.30;97.90;;;;;;5099342;28;19914;-71
2022/12/09 03:25:16;;;;;;;;;;;4.30;97.90;;;;;;5088827;28;19918;-71
2022/12/09 03:27:42;;;;;;;;;;;4.30;97.90;;;;;;5083917;28;19919;-71
2022/12/09 03:30:08;;;;;;;;;;;4.30;97.90;;;;;;5077342;28;20383;-71
2022/12/09 03:32:35;;;;;;;;;;;4.30;97.90;;;;;;5089739;28;19923;-71
2022/12/09 03:35:03;;;;;;;;;;;4.30;97.90;;;;;;5085309;28;19915;-71
2022/12/09 03:37:29;;;;;;;;;;;4.30;97.90;;;;;;5068560;28;20735;-71
2022/12/09 03:39:55;;;;;;;;;;;4.30;97.90;;;;;;5049888;28;19913;-71
2022/12/09 03:42:23;;;;;;;;;;;4.30;97.90;;;;;;5067530;28;19908;-73
2022/12/09 03:44:57;;;;;;;;;;;4.30;97.90;;;;;;5067179;28;19920;-73
2022/12/09 03:47:22;;;;;;;;;;;4.30;97.90;;;;;;5073057;28;19986;-71
2022/12/09 03:49:48;;;;;;;;;;;4.30;97.90;;;;;;5089328;28;19920;-72
2022/12/09 03:52:23;;;;;;;;;;;4.30;97.90;;;;;;5088570;28;19916;-72
2022/12/09 03:54:52;;;;;;;;;;;4.30;97.90;;;;;;5088719;28;20014;-72
2022/12/09 03:57:19;;;;;;;;;;;4.30;97.90;;;;;;5088172;28;19951;-72
2022/12/09 03:59:48;;;;;;;;;;;4.30;97.90;;;;;;5088211;28;19965;-72
2022/12/09 04:02:14;;;;;;;;;;;4.30;97.90;;;;;;5087669;28;19922;-72
2022/12/09 04:04:40;;;;;;;;;;;4.30;97.90;;;;;;5088624;28;19912;-72
2022/12/09 04:07:06;;;;;;;;;;;4.30;97.90;;;;;;5088460;28;20020;-72
2022/12/09 04:09:31;;;;;;;;;;;4.30;97.90;;;;;;5070811;28;19995;-72
2022/12/09 04:11:57;;;;;;;;;;;4.30;97.90;;;;;;5080239;28;19916;-72
2022/12/09 04:14:22;;;;;;;;;;;4.30;97.90;;;;;;5087351;28;19967;-72
2022/12/09 04:16:48;;;;;;;;;;;4.30;97.90;;;;;;5087637;28;19920;-72
2022/12/09 04:19:14;;;;;;;;;;;4.30;97.90;;;;;;5090021;28;19920;-72
2022/12/09 04:21:39;;;;;;;;;;;4.30;97.90;;;;;;5106530;28;19912;-72
2022/12/09 04:24:05;;;;;;;;;;;4.30;98.00;;;;;;5065989;28;20238;-72
2022/12/09 04:26:31;;;;;;;;;;;4.30;97.90;;;;;;5087709;28;19959;-72
2022/12/09 04:28:56;;;;;;;;;;;4.30;97.90;;;;;;5087902;28;19908;-72
2022/12/09 04:31:21;;;;;;;;;;;4.30;97.90;;;;;;5087824;28;20583;-72
2022/12/09 04:33:47;;;;;;;;;;;4.30;97.90;;;;;;5087093;28;19990;-71
2022/12/09 04:36:14;;;;;;;;;;;4.20;97.90;;;;;;5070391;28;20212;-72
2022/12/09 04:38:40;;;;;;;;;;;4.20;97.90;;;;;;5093290;28;19962;-72
2022/12/09 04:41:06;;;;;;;;;;;4.20;97.90;;;;;;5087554;28;19944;-72
2022/12/09 04:43:31;;;;;;;;;;;4.20;97.90;;;;;;5087104;28;19915;-72
2022/12/09 04:46:01;;;;;;;;;;;4.20;97.90;;;;;;5086426;28;19912;-72
2022/12/09 04:48:27;;;;;;;;;;;4.20;97.90;;;;;;5069335;28;19919;-72
2022/12/09 04:50:52;;;;;;;;;;;4.20;97.90;;;;;;5086959;28;19999;-72
2022/12/09 04:53:18;;;;;;;;;;;4.20;97.90;;;;;;5095583;28;19988;-72
2022/12/09 04:55:43;;;;;;;;;;;4.20;97.90;;;;;;5084620;28;20570;-72
2022/12/09 04:58:09;;;;;;;;;;;4.20;97.90;;;;;;5087642;28;19912;-72
2022/12/09 05:00:34;;;;;;;;;;;4.20;97.90;;;;;;5087196;28;19912;-73
2022/12/09 05:03:00;;;;;;;;;;;4.20;97.90;;;;;;5087603;28;20349;-72
2022/12/09 05:05:25;;;;;;;;;;;4.20;97.90;;;;;;5087427;28;19908;-72
2022/12/09 05:07:51;;;;;;;;;;;4.20;97.90;;;;;;5087780;28;19908;-72
2022/12/09 05:10:16;;;;;;;;;;;4.20;97.90;;;;;;5087822;28;19947;-72
2022/12/09 05:12:42;;;;;;;;;;;4.20;97.90;;;;;;5087198;28;19916;-72
2022/12/09 05:15:07;;;;;;;;;;;4.20;97.90;;;;;;5086842;28;19916;-72
2022/12/09 05:17:33;;;;;;;;;;;4.20;97.90;;;;;;5086921;28;20011;-72
2022/12/09 05:19:58;;;;;;;;;;;4.20;98.00;;;;;;5086672;28;20434;-71
2022/12/09 05:22:24;;;;;;;;;;;4.20;97.90;;;;;;5086982;28;19919;-72
2022/12/09 05:24:49;;;;;;;;;;;4.20;97.90;;;;;;5083775;28;19912;-72
2022/12/09 05:27:15;;;;;;;;;;;4.20;98.00;;;;;;5087808;28;19920;-71
2022/12/09 05:29:40;;;;;;;;;;;4.20;98.00;;;;;;5086736;28;19921;-72
2022/12/09 05:32:06;;;;;;;;;;;4.10;98.00;;;;;;5068664;28;19931;-72
2022/12/09 05:34:32;;;;;;;;;;;4.10;98.00;;;;;;5086627;28;19912;-72
2022/12/09 05:36:57;;;;;;;;;;;4.10;98.00;;;;;;5086884;28;19912;-72
2022/12/09 05:39:22;;;;;;;;;;;4.10;98.00;;;;;;5085849;28;20087;-71
2022/12/09 05:41:48;;;;;;;;;;;4.10;98.00;;;;;;5086700;28;19916;-72
2022/12/09 05:44:14;;;;;;;;;;;4.10;98.00;;;;;;5105208;28;19988;-72
2022/12/09 05:46:39;;;;;;;;;;;4.10;98.00;;;;;;5107086;28;19919;-72
2022/12/09 05:49:04;;;;;;;;;;;4.10;98.20;;;;;;5106836;28;19946;-72
2022/12/09 05:51:30;;;;;;;;;;;4.10;98.00;;;;;;5106782;28;19981;-71
2022/12/09 05:53:59;;;;;;;;;;;4.10;97.90;;;;;;5087377;28;20356;-72
2022/12/09 05:56:24;;;;;;;;;;;4.10;97.90;;;;;;5086735;28;19916;-72
2022/12/09 05:58:50;;;;;;;;;;;4.10;98.00;;;;;;5088356;28;19939;-73
2022/12/09 06:01:16;;;;;;;;;;;4.10;98.00;;;;;;5090863;28;19935;-72
2022/12/09 06:03:42;;;;;;;;;;;4.10;97.90;;;;;;5086886;28;20010;-72
2022/12/09 06:06:08;;;;;;;;;;;4.10;98.00;;;;;;5086818;28;19918;-72
2022/12/09 06:08:34;;;;;;;;;;;4.00;97.90;;;;;;5077537;28;19932;-72
2022/12/09 06:10:59;;;;;;;;;;;4.00;97.90;;;;;;5078955;28;19931;-72
2022/12/09 06:13:25;;;;;;;;;;;4.10;97.90;;;;;;5068582;28;20357;-72
2022/12/09 06:15:51;;;;;;;;;;;4.00;97.90;;;;;;5087808;28;19921;-72
2022/12/09 06:18:17;;;;;;;;;;;4.00;97.90;;;;;;5086856;28;20605;-72
2022/12/09 06:20:42;;;;;;;;;;;4.00;97.90;;;;;;5086447;28;19921;-72
2022/12/09 06:23:08;;;;;;;;;;;4.00;97.90;;;;;;5084424;28;19981;-72
2022/12/09 06:25:33;;;;;;;;;;;4.00;97.90;;;;;;5085188;28;19962;-72
2022/12/09 06:27:59;;;;;;;;;;;4.00;97.90;;;;;;5087100;28;19916;-72
2022/12/09 06:30:24;;;;;;;;;;;4.00;97.90;;;;;;5086168;28;19950;-72
2022/12/09 06:32:50;;;;;;;;;;;4.00;97.90;;;;;;5087875;28;19966;-72
2022/12/09 06:35:15;;;;;;;;;;;4.00;97.90;;;;;;5086283;28;19912;-72
2022/12/09 06:37:41;;;;;;;;;;;4.00;97.90;;;;;;5086957;28;19919;-72
2022/12/09 06:40:07;;;;;;;;;;;4.00;97.90;;;;;;5086183;28;19985;-71
2022/12/09 06:42:32;;;;;;;;;;;4.00;97.90;;;;;;5086461;28;19946;-72
2022/12/09 06:44:58;;;;;;;;;;;4.00;98.20;;;;;;5086519;28;19911;-72
2022/12/09 06:47:23;;;;;;;;;;;4.00;97.90;;;;;;5086491;28;19969;-72
2022/12/09 06:49:49;;;;;;;;;;;4.00;97.90;;;;;;5087454;28;19916;-72
2022/12/09 06:52:14;;;;;;;;;;;4.00;97.80;;;;;;5088997;28;19912;-72
2022/12/09 06:54:40;;;;;;;;;;;4.00;97.90;;;;;;5089379;28;19957;-72
2022/12/09 06:57:05;;;;;;;;;;;4.00;97.90;;;;;;5089840;28;20246;-72
2022/12/09 06:59:30;;;;;;;;;;;4.00;97.80;;;;;;5089239;28;19912;-72
2022/12/09 07:01:56;;;;;;;;;;;4.00;97.80;;;;;;5071324;28;19965;-71
2022/12/09 07:04:21;;;;;;;;;;;4.00;97.90;;;;;;5089509;28;19912;-72
2022/12/09 07:06:47;;;;;;;;;;;4.00;97.90;;;;;;5099810;28;20365;-72
2022/12/09 07:09:14;;;;;;;;;;;3.90;97.90;;;;;;5090911;28;19908;-71
2022/12/09 07:11:41;;;;;;;;;;;3.90;97.90;;;;;;5108919;28;19973;-71
2022/12/09 07:14:07;;;;;;;;;;;3.90;97.90;;;;;;5108381;28;19919;-72
2022/12/09 07:16:33;;;;;;;;;;;3.90;97.90;;;;;;5109057;28;19930;-72
2022/12/09 07:18:59;;;;;;;;;;;3.90;97.90;;;;;;5109026;28;19912;-72
2022/12/09 07:21:25;;;;;;;;;;;3.90;97.90;;;;;;5109129;28;20356;-72
2022/12/09 07:23:50;;;;;;;;;;;3.80;97.90;;;;;;5089302;28;19923;-72
2022/12/09 07:26:16;;;;;;;;;;;3.80;97.90;;;;;;5089169;28;19916;-72
2022/12/09 07:28:42;;;;;;;;;;;3.80;97.90;;;;;;5089662;28;19913;-72
2022/12/09 07:31:34;;;;;;;;;;;3.80;97.90;;;;;;5088926;28;20715;-72
2022/12/09 07:33:59;;;;;;;;;;;3.80;97.90;;;;;;5068176;28;19981;-72
2022/12/09 07:36:26;;;;;;;;;;;3.80;97.90;;;;;;5089280;28;20361;-72
2022/12/09 07:38:56;;;;;;;;;;;3.80;97.80;;;;;;5070902;28;19912;-72
2022/12/09 07:41:21;;;;;;;;;;;3.80;97.80;;;;;;5107159;28;20011;-72
2022/12/09 07:43:47;;;;;;;;;;;3.80;97.80;;;;;;5090760;28;20671;-72
2022/12/09 07:46:14;;;;;;;;;;;3.80;97.80;;;;;;5090975;28;19919;-72
2022/12/09 07:48:39;;;;;;;;;;;3.80;97.80;;;;;;5109298;28;20356;-72
2022/12/09 07:51:05;;;;;;;;;;;3.80;97.80;;;;;;5109198;28;19953;-73
2022/12/09 07:53:32;;;;;;;;;;;3.80;97.80;;;;;;5093341;28;20579;-73
2022/12/09 07:56:02;;;;;;;;;;;3.80;97.80;;;;;;5089182;28;19923;-73
2022/12/09 07:58:28;;;;;;;;;;;3.80;97.80;;;;;;5068204;28;20003;-72
2022/12/09 08:00:53;;;;;;;;;;;3.80;97.80;;;;;;5049843;28;20023;-72
2022/12/09 08:03:19;;;;;;;;;;;3.80;97.80;;;;;;5068276;28;19920;-71
2022/12/09 08:05:45;;;;;;;;;;;3.80;97.80;;;;;;5070470;28;19955;-71
2022/12/09 08:08:10;;;;;;;;;;;3.80;97.80;;;;;;5088718;28;19912;-71
2022/12/09 08:10:36;;;;;;;;;;;3.80;97.80;;;;;;5088385;28;19923;-71
2022/12/09 08:13:01;;;;;;;;;;;3.80;97.80;;;;;;5088517;28;19916;-71
2022/12/09 08:15:27;;;;;;;;;;;3.80;97.70;;;;;;5088153;28;19924;-71
2022/12/09 08:17:52;;;;;;;;;;;3.80;97.70;;;;;;5088561;28;19916;-70
2022/12/09 08:20:18;;;;;;;;;;;3.90;97.70;;;;;;5087706;28;19919;-71
2022/12/09 08:22:43;;;;;;;;;;;3.80;97.70;;;;;;5088372;28;20556;-71
2022/12/09 08:25:09;;;;;;;;;;;3.90;97.70;;;;;;5084950;28;19961;-71
2022/12/09 08:27:34;;;;;;;;;;;3.90;97.70;;;;;;5089148;28;19941;-71
2022/12/09 08:30:00;;;;;;;;;;;3.90;97.70;;;;;;5087733;28;20002;-71
2022/12/09 08:32:25;;;;;;;;;;;3.90;97.70;;;;;;5088180;28;19922;-71
2022/12/09 08:34:51;;;;;;;;;;;3.90;97.70;;;;;;5087712;28;19908;-71
2022/12/09 08:37:16;;;;;;;;;;;3.90;97.70;;;;;;5087825;28;19916;-70
2022/12/09 08:39:42;;;;;;;;;;;3.90;97.70;;;;;;5087592;28;19912;-70
2022/12/09 08:42:07;;;;;;;;;;;3.90;97.70;;;;;;5087796;28;20268;-71
2022/12/09 08:44:33;;;;;;;;;;;3.90;97.70;;;;;;5087577;28;19916;-70
2022/12/09 08:46:58;;;;;;;;;;;3.90;97.70;;;;;;5087760;28;19916;-71
2022/12/09 08:49:24;;;;;;;;;;;3.90;97.70;;;;;;5069239;28;19923;-71
2022/12/09 08:51:50;;;;;;;;;;;3.90;97.70;;;;;;5087265;28;19912;-71
2022/12/09 08:54:16;;;;;;;;;;;3.90;97.60;;;;;;5087499;28;19908;-71
2022/12/09 08:56:45;;;;;;;;;;;3.90;97.70;;;;;;5087624;28;20028;-71
2022/12/09 08:59:11;;;;;;;;;;;3.90;97.60;;;;;;5069308;28;20342;-71
2022/12/09 09:01:36;;;;;;;;;;;3.90;97.60;;;;;;5102177;28;19916;-71
2022/12/09 09:04:03;;;;;;;;;;;3.90;97.60;;;;;;5101588;28;19920;-71
2022/12/09 09:06:29;;;;;;;;;;;4.00;97.60;;;;;;5087487;28;20022;-71
2022/12/09 09:08:55;;;;;;;;;;;4.00;97.60;;;;;;5087396;28;20010;-71
2022/12/09 09:11:22;;;;;;;;;;;4.00;97.60;;;;;;5087467;28;19916;-70
2022/12/09 09:13:50;;;;;;;;;;;4.00;97.60;;;;;;5086584;28;19920;-71
2022/12/09 09:16:16;;;;;;;;;;;4.00;97.60;;;;;;5087256;28;19941;-71
2022/12/09 09:18:42;;;;;;;;;;;4.00;97.60;;;;;;5103787;28;19924;-71
2022/12/09 09:21:08;;;;;;;;;;;4.00;97.50;;;;;;5107136;28;20424;-71
2022/12/09 09:23:34;;;;;;;;;;;4.00;97.50;;;;;;5072720;28;19944;-71
2022/12/09 09:25:59;;;;;;;;;;;4.00;97.50;;;;;;5085371;28;19962;-72
2022/12/09 09:28:25;;;;;;;;;;;4.10;97.50;;;;;;5079174;28;19958;-71
2022/12/09 09:31:00;;;;;;;;;;;4.10;97.60;;;;;;5076498;28;20532;-71
2022/12/09 09:33:26;;;;;;;;;;;4.00;97.50;;;;;;5086795;28;19915;-71
2022/12/09 09:35:58;;;;;;;;;;;4.10;97.50;;;;;;5078518;28;19913;-71
2022/12/09 09:38:24;;;;;;;;;;;4.10;97.50;;;;;;5067023;28;19924;-71
2022/12/09 09:40:50;;;;;;;;;;;4.10;97.60;;;;;;5066448;28;20324;-71
2022/12/09 09:43:17;;;;;;;;;;;4.10;97.50;;;;;;5049391;28;19908;-71
2022/12/09 09:45:43;;;;;;;;;;;4.10;97.60;;;;;;5066673;28;19912;-71
2022/12/09 09:48:13;;;;;;;;;;;4.10;97.50;;;;;;5067140;28;20284;-71
2022/12/09 09:50:47;;;;;;;;;;;4.10;97.50;;;;;;5074859;28;19970;-71
2022/12/09 09:53:18;;;;;;;;;;;4.10;97.50;;;;;;5086849;28;19923;-72
2022/12/09 09:55:48;;;;;;;;;;;4.10;97.50;;;;;;5086656;28;20057;-71
2022/12/09 09:58:23;;;;;;;;;;;4.20;97.50;;;;;;5086668;28;20019;-71
2022/12/09 10:00:52;;;;;;;;;;;4.20;97.50;;;;;;5086438;28;19919;-71
2022/12/09 10:03:26;;;;;;;;;;;4.20;97.40;;;;;;5086694;28;19970;-71
2022/12/09 10:05:53;;;;;;;;;;;4.20;97.40;;;;;;5086710;28;19919;-71
2022/12/09 10:08:21;;;;;;;;;;;4.20;97.40;;;;;;5091266;28;19919;-72
2022/12/09 10:10:56;;;;;;;;;;;4.20;97.40;;;;;;5086091;28;20727;-71
2022/12/09 10:13:40;;;;;;;;;;;4.20;97.40;;;;;;5086591;28;19926;-72
2022/12/09 10:16:14;;;;;;;;;;;4.20;97.40;;;;;;5085623;28;19916;-72
2022/12/09 10:18:53;;;;;;;;;;;4.20;97.40;;;;;;5085792;28;19912;-71
2022/12/09 10:21:19;;;;;;;;;;;4.30;97.30;;;;;;5085248;28;19951;-72
2022/12/09 10:23:46;;;;;;;;;;;4.30;97.30;;;;;;5097714;28;20024;-72
2022/12/09 10:26:20;;;;;;;;;;;4.30;97.30;;;;;;5089215;28;19912;-72
2022/12/09 10:28:48;;;;;;;;;;;4.30;97.30;;;;;;5090306;28;19914;-71
2022/12/09 10:31:13;;;;;;;;;;;4.30;97.30;;;;;;5089522;28;19908;-72
2022/12/09 10:33:39;;;;;;;;;;;4.30;97.30;;;;;;5090036;28;19919;-71
2022/12/09 10:36:06;;;;;;;;;;;4.30;97.30;;;;;;5090181;28;19916;-72
2022/12/09 10:38:34;;;;;;;;;;;4.30;97.30;;;;;;5091284;28;19927;-72
2022/12/09 10:43:33;;;;;;;;;;;4.40;97.30;;;;;;5089578;28;20631;-72
2022/12/09 10:44:17;;;;;;;;;;;4.30;97.30;;;;;;5089927;28;20022;-71
2022/12/09 10:46:43;;;;;;;;;;;4.40;97.30;;;;;;5090130;28;19926;-71
2022/12/09 10:49:16;;;;;;;;;;;4.40;97.30;;;;;;5090094;28;20334;-71
2022/12/09 10:51:46;;;;;;;;;;;4.40;97.30;;;;;;5089431;28;19944;-71
2022/12/09 10:54:11;;;;;;;;;;;4.40;97.30;;;;;;5089637;28;20704;-72
2022/12/09 10:56:38;;;;;;;;;;;4.40;97.20;;;;;;5104226;28;19923;-72
2022/12/09 10:59:06;;;;;;;;;;;4.40;97.20;;;;;;5109879;28;19977;-72
2022/12/09 11:01:46;;;;;;;;;;;4.40;97.20;;;;;;5110106;28;19912;-72
2022/12/09 11:04:12;;;;;;;;;;;4.40;97.10;;;;;;5090127;28;19958;-72
2022/12/09 11:06:39;;;;;;;;;;;4.40;97.20;;;;;;5088992;28;19928;-72
2022/12/09 11:09:04;;;;;;;;;;;4.50;97.20;;;;;;5071386;28;19938;-72
2022/12/09 11:11:48;;;;;;;;;;;4.50;97.20;;;;;;5089378;28;19908;-71
2022/12/09 11:14:23;;;;;;;;;;;4.50;97.10;;;;;;5068678;28;19924;-72
2022/12/09 11:16:52;;;;;;;;;;;4.50;97.00;;;;;;5069043;28;20007;-72
2022/12/09 11:19:26;;;;;;;;;;;4.50;97.00;;;;;;5069391;28;19912;-72
2022/12/09 11:22:11;;;;;;;;;;;4.60;97.00;;;;;;5071021;28;19939;-72
2022/12/09 11:24:36;;;;;;;;;;;4.60;97.00;;;;;;5088987;28;20517;-72
2022/12/09 11:27:02;;;;;;;;;;;4.60;96.90;;;;;;5089074;28;20028;-72
2022/12/09 11:29:27;;;;;;;;;;;4.70;96.80;;;;;;5089912;28;19916;-72
2022/12/09 11:31:53;;;;;;;;;;;4.70;96.70;;;;;;5089431;28;19998;-72
2022/12/09 11:34:24;;;;;;;;;;;4.70;96.70;;;;;;5089207;28;19912;-72
2022/12/09 11:36:51;;;;;;;;;;;4.70;96.70;;;;;;5088358;28;19923;-71
2022/12/09 11:39:19;;;;;;;;;;;4.70;96.70;;;;;;5088928;28;19918;-72
2022/12/09 11:44:34;;;;;;;;;;;4.80;96.70;;;;;;5089848;28;19945;-72
2022/12/09 11:47:01;;;;;;;;;;;4.80;96.70;;;;;;5109317;28;19915;-73
2022/12/09 11:49:27;;;;;;;;;;;4.80;96.60;;;;;;5109214;28;19919;-72
2022/12/09 11:52:13;;;;;;;;;;;4.80;96.70;;;;;;5107314;28;19959;-72
2022/12/09 11:54:47;;;;;;;;;;;4.80;96.70;;;;;;5077553;28;20003;-72
2022/12/09 11:57:17;;;;;;;;;;;4.80;96.70;;;;;;5088779;28;19961;-71
2022/12/09 11:59:48;;;;;;;;;;;4.80;96.70;;;;;;5088336;28;19927;-71
2022/12/09 12:02:20;;;;;;;;;;;4.80;96.70;;;;;;5090095;28;19909;-72
2022/12/09 12:05:05;;;;;;;;;;;4.80;96.70;;;;;;5088608;28;20284;-72
2022/12/09 12:07:38;;;;;;;;;;;4.80;96.70;;;;;;5088340;28;20006;-72
2022/12/09 12:10:05;;;;;;;;;;;4.80;96.70;;;;;;5088121;28;19942;-72
2022/12/09 12:12:39;;;;;;;;;;;4.80;96.80;;;;;;5087721;28;19997;-72
2022/12/09 12:15:25;;;;;;;;;;;4.80;96.80;;;;;;5088621;28;19981;-72
2022/12/09 12:17:54;;;;;;;;;;;4.80;96.70;;;;;;5093288;28;19923;-72
2022/12/09 12:20:21;;;;;;;;;;;4.80;96.70;;;;;;5086738;28;19958;-72
2022/12/09 12:22:49;;;;;;;;;;;4.80;96.70;;;;;;5088283;28;19908;-72
2022/12/09 12:25:19;;;;;;;;;;;4.80;96.70;;;;;;5079192;28;20380;-72
2022/12/09 12:27:44;;;;;;;;;;;4.80;96.70;;;;;;5088063;28;19967;-72
2022/12/09 12:30:14;;;;;;;;;;;4.80;96.70;;;;;;5087957;28;20423;-72
2022/12/09 12:32:48;;;;;;;;;;;4.80;96.70;;;;;;5054856;28;20273;-72
2022/12/09 12:35:16;;;;;;;;;;;4.80;96.60;;;;;;5088268;28;19919;-72
2022/12/09 12:37:41;;;;;;;;;;;4.90;96.70;;;;;;5088391;28;19919;-72
2022/12/09 12:40:07;;;;;;;;;;;4.90;96.60;;;;;;5087789;28;20335;-72
2022/12/09 12:42:33;;;;;;;;;;;4.90;96.60;;;;;;5087860;28;19912;-72
2022/12/09 12:47:45;;;;;;;;;;;4.90;96.50;;;;;;5100394;28;19962;-72
2022/12/09 12:50:16;;;;;;;;;;;4.90;96.40;;;;;;5089885;28;19943;-72
2022/12/09 12:52:42;;;;;;;;;;;5.00;96.40;;;;;;5099187;28;20653;-72
2022/12/09 12:55:11;;;;;;;;;;;5.00;96.50;;;;;;5066660;28;19912;-72
2022/12/09 12:57:42;;;;;;;;;;;5.00;96.50;;;;;;5086440;28;19927;-72
2022/12/09 13:00:22;;;;;;;;;;;5.00;96.60;;;;;;5086002;28;19964;-72
2022/12/09 13:02:51;;;;;;;;;;;5.00;96.60;;;;;;5086295;28;19912;-73
2022/12/09 13:05:20;;;;;;;;;;;5.00;96.60;;;;;;5104592;28;19912;-72
2022/12/09 13:07:50;;;;;;;;;;;4.90;96.60;;;;;;5107814;28;19911;-72
2022/12/09 13:10:34;;;;;;;;;;;5.00;96.60;;;;;;5107527;28;20003;-72
2022/12/09 13:13:01;;;;;;;;;;;4.90;96.60;;;;;;5107584;28;19916;-72
2022/12/09 13:15:38;;;;;;;;;;;4.90;96.60;;;;;;5089368;28;19912;-72
2022/12/09 13:18:09;;;;;;;;;;;4.90;96.70;;;;;;5107191;28;19923;-72
2022/12/09 13:20:37;;;;;;;;;;;4.90;96.70;;;;;;5096800;28;20323;-72
2022/12/09 13:23:11;;;;;;;;;;;4.80;96.70;;;;;;5094917;28;20004;-72
2022/12/09 13:25:51;;;;;;;;;;;4.80;96.70;;;;;;5085580;28;19974;-72
2022/12/09 13:28:40;;;;;;;;;;;4.80;96.80;;;;;;5087230;28;19912;-72
2022/12/09 13:31:07;;;;;;;;;;;4.80;96.80;;;;;;5048025;28;20364;-72
2022/12/09 13:33:41;;;;;;;;;;;4.80;96.90;;;;;;5087084;28;19919;-72
2022/12/09 13:36:11;;;;;;;;;;;4.70;96.90;;;;;;5086976;28;20385;-72
2022/12/09 13:38:41;;;;;;;;;;;4.70;96.90;;;;;;5067015;28;20031;-72
2022/12/09 13:41:25;;;;;;;;;;;4.70;96.90;;;;;;5066527;28;19908;-72
2022/12/09 13:43:54;;;;;;;;;;;4.70;96.90;;;;;;5066715;28;19951;-72
2022/12/09 13:46:24;;;;;;;;;;;4.70;97.00;;;;;;5048578;28;20368;-72
2022/12/09 13:48:50;;;;;;;;;;;4.60;97.00;;;;;;5067009;28;20260;-72
2022/12/09 13:51:16;;;;;;;;;;;4.60;97.30;;;;;;5066853;28;19908;-72
2022/12/09 13:53:46;;;;;;;;;;;4.60;97.00;;;;;;5077456;28;19974;-72
2022/12/09 13:56:14;;;;;;;;;;;4.60;97.00;;;;;;5081693;28;19916;-72
2022/12/09 13:58:43;;;;;;;;;;;4.60;97.10;;;;;;5087025;28;20007;-72
2022/12/09 14:01:11;;;;;;;;;;;4.60;97.10;;;;;;5089281;28;20637;-72
2022/12/09 14:03:44;;;;;;;;;;;4.50;97.00;;;;;;5091059;28;19942;-72
2022/12/09 14:06:38;;;;;;;;;;;4.50;97.00;;;;;;5091049;28;19946;-71
2022/12/09 14:09:24;;;;;;;;;;;4.50;97.10;;;;;;5035490;28;20027;-71
2022/12/09 14:11:50;;;;;;;;;;;4.50;97.10;;;;;;5110828;28;19915;-72
2022/12/09 14:14:22;;;;;;;;;;;4.50;97.10;;;;;;5092127;28;19916;-72
2022/12/09 14:16:48;;;;;;;;;;;4.50;97.10;;;;;;5110887;28;20440;-72
2022/12/09 14:19:40;;;;;;;;;;;4.50;97.10;;;;;;5110959;28;19915;-71
2022/12/09 14:22:18;;;;;;;;;;;4.40;97.10;;;;;;5105951;28;20292;-72
2022/12/09 14:24:48;;;;;;;;;;;4.40;97.10;;;;;;5081590;28;19916;-71
2022/12/09 14:27:13;;;;;;;;;;;4.40;97.10;;;;;;5077189;28;20014;-71
2022/12/09 14:29:42;;;;;;;;;;;4.40;97.10;;;;;;5073101;28;20003;-71
2022/12/09 14:32:18;;;;;;;;;;;4.40;97.10;;;;;;5090642;28;20492;-71
2022/12/09 14:34:46;;;;;;;;;;;4.40;97.10;;;;;;5088185;28;19924;-72
2022/12/09 14:37:15;;;;;;;;;;;4.40;97.10;;;;;;5089320;28;19919;-72
2022/12/09 14:39:54;;;;;;;;;;;4.40;97.00;;;;;;5089222;28;19908;-72
2022/12/09 14:42:29;;;;;;;;;;;4.40;97.00;;;;;;5105918;27;19912;-74